Terminal Aerodrome Forecast
Issued by NWS Sterling, VA

Current Version | Previous Version | Text Only | Print | Product List | Glossary Off
Versions: 1 2 3 4 5 6 7 8 9 10 11 12 13 14 15 16 17 18

000
FTUS41 KLWX 230500 RRA
TAFMRB
TAF
KMRB 230541Z 2306/2406 30008KT P6SM OVC035
     FM231600 18004KT P6SM SCT250
     FM231800 17006KT P6SM BKN035 OVC060
     FM232300 15006KT 5SM -SNPL BKN010 OVC025
     FM240000 14005KT 4SM -SNPL BR BKN008 OVC020
     FM240400 15004KT 1SM -SN BR BKN003 OVC008=

USA.gov is the U.S. government's official web portal to all federal, state and local government web resources and services.